createdAt,value
2022-11-29T00:00:45.202Z,93577.41
2022-11-29T00:03:12.185Z,93565.75
2022-11-29T00:05:38.958Z,93567.31
2022-11-29T00:08:05.795Z,93568.06
2022-11-29T00:10:36.835Z,93565.25
2022-11-29T00:13:04.319Z,93564.50
2022-11-29T00:15:34.854Z,93563.34
2022-11-29T00:18:01.504Z,93562.59
2022-11-29T00:20:28.164Z,93564.19
2022-11-29T00:22:54.750Z,93562.22
2022-11-29T00:25:21.496Z,93559.88
2022-11-29T00:27:48.162Z,93560.72
2022-11-29T00:30:14.975Z,93555.66
2022-11-29T00:32:41.705Z,93560.25
2022-11-29T00:35:09.929Z,93559.53
2022-11-29T00:37:36.953Z,93558.00
2022-11-29T00:40:04.649Z,93558.41
2022-11-29T00:42:31.475Z,93560.34
2022-11-29T00:44:58.098Z,93568.13
2022-11-29T00:47:24.773Z,93564.63
2022-11-29T00:49:51.635Z,93561.88
2022-11-29T00:52:18.271Z,93559.56
2022-11-29T00:54:45.333Z,93560.34
2022-11-29T00:57:12.203Z,93563.06
2022-11-29T00:59:38.854Z,93558.38
2022-11-29T01:02:05.565Z,93554.47
2022-11-29T01:04:32.260Z,93556.78
2022-11-29T01:06:58.862Z,93554.06
2022-11-29T01:09:25.482Z,93549.00
2022-11-29T01:11:52.135Z,93551.75
2022-11-29T01:14:18.766Z,93558.72
2022-11-29T01:16:45.428Z,93560.63
2022-11-29T01:19:12.052Z,93556.38
2022-11-29T01:21:38.896Z,93565.31
2022-11-29T01:24:05.801Z,93563.38
2022-11-29T01:26:32.589Z,93563.75
2022-11-29T01:28:59.552Z,93563.00
2022-11-29T01:31:29.698Z,93564.16
2022-11-29T01:33:59.765Z,93563.38
2022-11-29T01:36:27.695Z,93552.88
2022-11-29T01:38:54.826Z,93551.75
2022-11-29T01:41:27.292Z,93550.97
2022-11-29T01:44:26.135Z,93548.19
2022-11-29T01:46:54.478Z,93549.63
2022-11-29T01:49:29.339Z,93552.22
2022-11-29T01:51:58.666Z,93550.19
2022-11-29T01:54:25.958Z,93550.28
2022-11-29T01:56:53.104Z,93548.78
2022-11-29T01:59:23.380Z,93547.66
2022-11-29T02:01:50.099Z,93544.56
2022-11-29T02:04:18.558Z,93541.84
2022-11-29T02:06:45.957Z,93544.56
2022-11-29T02:09:20.641Z,93542.19
2022-11-29T02:11:47.186Z,93559.31
2022-11-29T02:14:32.209Z,93556.66
2022-11-29T02:17:20.808Z,93553.56
2022-11-29T02:20:28.427Z,93559.81
2022-11-29T02:23:21.242Z,93561.69
2022-11-29T02:26:18.617Z,93557.81
2022-11-29T02:28:52.559Z,93554.75
2022-11-29T02:31:36.931Z,93563.31
2022-11-29T02:34:06.586Z,93559.78
2022-11-29T02:37:06.005Z,93562.53
2022-11-29T02:39:42.737Z,93563.34
2022-11-29T02:42:55.567Z,93559.44
2022-11-29T02:45:31.583Z,93560.97
2022-11-29T02:48:17.018Z,93557.84
2022-11-29T02:51:04.139Z,93562.09
2022-11-29T02:54:07.875Z,93562.09
2022-11-29T02:56:43.066Z,93555.13
2022-11-29T02:59:20.575Z,93556.25
2022-11-29T03:02:16.434Z,93564.44
2022-11-29T03:05:22.000Z,93560.50
2022-11-29T03:08:06.510Z,93568.31
2022-11-29T03:10:48.093Z,93569.53
2022-11-29T03:13:25.011Z,93566.41
2022-11-29T03:16:15.033Z,93573.34
2022-11-29T03:19:31.017Z,93572.91
2022-11-29T03:22:03.769Z,93583.38
2022-11-29T03:25:02.780Z,93575.28
2022-11-29T03:27:43.387Z,93582.22
2022-11-29T03:30:13.875Z,93579.09
2022-11-29T03:32:55.059Z,93587.25
2022-11-29T03:35:55.826Z,93584.16
2022-11-29T03:38:25.218Z,93587.22
2022-11-29T03:41:02.012Z,93585.34
2022-11-29T03:43:43.252Z,93582.19
2022-11-29T03:46:21.550Z,93585.28
2022-11-29T03:49:02.504Z,93590.69
2022-11-29T03:52:15.150Z,93596.13
2022-11-29T03:55:21.016Z,93598.38
2022-11-29T03:58:13.299Z,93596.09
2022-11-29T04:01:15.276Z,93598.44
2022-11-29T04:04:14.351Z,93597.97
2022-11-29T04:07:02.235Z,93594.22
2022-11-29T04:09:56.580Z,93597.69
2022-11-29T04:12:32.108Z,93599.97
2022-11-29T04:15:22.815Z,93601.16
2022-11-29T04:18:17.402Z,93604.28
2022-11-29T04:20:59.810Z,93602.31
2022-11-29T04:23:55.543Z,93604.97
2022-11-29T04:26:40.959Z,93599.44
2022-11-29T04:29:07.466Z,93604.44
2022-11-29T04:32:02.597Z,93606.34
2022-11-29T04:34:50.717Z,93601.59
2022-11-29T04:38:03.269Z,93609.06
2022-11-29T04:40:55.957Z,93602.53
2022-11-29T04:43:34.154Z,93601.03
2022-11-29T04:46:16.715Z,93614.59
2022-11-29T04:49:05.085Z,93605.66
2022-11-29T04:52:00.682Z,93616.13
2022-11-29T04:54:51.703Z,93619.53
2022-11-29T04:57:47.339Z,93606.06
2022-11-29T05:00:19.147Z,93611.03
2022-11-29T05:02:48.593Z,93618.00
2022-11-29T05:05:21.081Z,93613.81
2022-11-29T05:08:06.484Z,93621.22
2022-11-29T05:10:59.139Z,93626.63
2022-11-29T05:13:45.337Z,93623.50
2022-11-29T05:16:24.589Z,93631.94
2022-11-29T05:19:16.370Z,93629.97
2022-11-29T05:22:06.952Z,93629.22
2022-11-29T05:24:56.126Z,93622.25
2022-11-29T05:27:35.009Z,93629.25
2022-11-29T05:30:05.097Z,93637.41
2022-11-29T05:33:16.666Z,93635.44
2022-11-29T05:35:53.083Z,93625.78
2022-11-29T05:38:35.876Z,93634.28
2022-11-29T05:41:20.922Z,93633.16
2022-11-29T05:44:06.327Z,93639.38
2022-11-29T05:46:52.024Z,93634.69
2022-11-29T05:49:33.736Z,93642.78
2022-11-29T05:52:24.565Z,93637.72
2022-11-29T05:55:09.562Z,93641.56
2022-11-29T05:58:06.959Z,93644.31
2022-11-29T06:00:44.367Z,93641.28
2022-11-29T06:03:22.570Z,93639.31
2022-11-29T06:06:12.631Z,93640.88
2022-11-29T06:08:44.927Z,93648.69
2022-11-29T06:11:22.009Z,93648.31
2022-11-29T06:14:13.391Z,93650.03
2022-11-29T06:16:56.857Z,93654.19
2022-11-29T06:19:44.185Z,93653.03
2022-11-29T06:22:29.427Z,93658.53
2022-11-29T06:25:27.134Z,93661.69
2022-11-29T06:28:12.135Z,93661.94
2022-11-29T06:31:00.616Z,93661.28
2022-11-29T06:33:33.325Z,93666.03
2022-11-29T06:36:15.750Z,93662.09
2022-11-29T06:38:42.579Z,93670.63
2022-11-29T06:41:17.051Z,93670.34
2022-11-29T06:43:44.066Z,93667.97
2022-11-29T06:46:37.799Z,93675.69
2022-11-29T06:49:46.794Z,93673.91
2022-11-29T06:52:32.000Z,93673.53
2022-11-29T06:55:04.516Z,93681.63
2022-11-29T06:57:40.409Z,93690.53
2022-11-29T07:00:11.650Z,93689.81
2022-11-29T07:03:16.515Z,93681.56
2022-11-29T07:05:43.507Z,93685.81
2022-11-29T07:08:18.635Z,93684.00
2022-11-29T07:10:46.446Z,93688.25
2022-11-29T07:13:13.697Z,93686.66
2022-11-29T07:15:55.548Z,93697.03
2022-11-29T07:18:34.089Z,93690.50
2022-11-29T07:21:28.123Z,93698.78
2022-11-29T07:24:13.474Z,93699.81
2022-11-29T07:26:59.543Z,93701.84
2022-11-29T07:29:45.119Z,93707.66
2022-11-29T07:32:47.315Z,93712.72
2022-11-29T07:35:45.766Z,93715.31
2022-11-29T07:38:50.243Z,93708.75
2022-11-29T07:41:27.515Z,93718.91
2022-11-29T07:44:12.778Z,93714.69
2022-11-29T07:46:39.511Z,93711.59
2022-11-29T07:49:09.170Z,93715.91
2022-11-29T07:51:35.947Z,93708.19
2022-11-29T07:54:02.804Z,93719.16
2022-11-29T07:56:29.939Z,93712.13
2022-11-29T07:58:56.631Z,93721.78
2022-11-29T08:01:23.438Z,93715.13
2022-11-29T08:03:50.123Z,93720.72
2022-11-29T08:06:16.752Z,93719.59
2022-11-29T08:08:44.377Z,93719.91
2022-11-29T08:11:12.791Z,93720.13
2022-11-29T08:13:39.520Z,93720.63
2022-11-29T08:16:06.419Z,93731.53
2022-11-29T08:18:33.028Z,93728.81
2022-11-29T08:21:05.791Z,93728.53
2022-11-29T08:23:32.387Z,93728.94
2022-11-29T08:26:03.295Z,93737.34
2022-11-29T08:28:30.007Z,93731.66
2022-11-29T08:31:01.615Z,93733.25
2022-11-29T08:33:28.878Z,93732.97
2022-11-29T08:35:56.011Z,93733.97
2022-11-29T08:38:23.077Z,93732.94
2022-11-29T08:40:49.875Z,93737.88
2022-11-29T08:43:16.602Z,93730.47
2022-11-29T08:45:43.336Z,93725.81
2022-11-29T08:48:10.035Z,93730.84
2022-11-29T08:50:36.688Z,93738.75
2022-11-29T08:53:21.923Z,93731.25
2022-11-29T08:55:48.607Z,93734.81
2022-11-29T08:58:16.085Z,93730.16
2022-11-29T09:00:45.562Z,93742.47
2022-11-29T09:03:31.066Z,93735.78
2022-11-29T09:05:57.827Z,93738.69
2022-11-29T09:08:24.504Z,93743.09
2022-11-29T09:10:51.254Z,93744.28
2022-11-29T09:13:18.174Z,93749.47
2022-11-29T09:15:44.929Z,93747.81
2022-11-29T09:18:11.652Z,93750.94
2022-11-29T09:20:38.421Z,93751.81
2022-11-29T09:23:05.100Z,93758.78
2022-11-29T09:25:31.774Z,93761.34
2022-11-29T09:28:01.840Z,93762.84
2022-11-29T09:30:31.929Z,93770.88
2022-11-29T09:33:05.175Z,93767.50
2022-11-29T09:35:33.190Z,93765.91
2022-11-29T09:38:00.314Z,93769.41
2022-11-29T09:40:32.839Z,93766.97
2022-11-29T09:43:22.740Z,93771.94
2022-11-29T09:45:59.571Z,93770.84
2022-11-29T09:48:40.585Z,93772.41
2022-11-29T09:51:38.578Z,93769.03
2022-11-29T09:54:45.790Z,93765.16
2022-11-29T09:57:14.106Z,93761.59
2022-11-29T09:59:45.000Z,93764.94
2022-11-29T10:02:28.979Z,93766.59
2022-11-29T10:05:28.594Z,93770.22
2022-11-29T10:08:26.399Z,93771.91
2022-11-29T10:11:22.781Z,93775.81
2022-11-29T10:13:55.368Z,93773.47
2022-11-29T10:16:41.317Z,93767.50
2022-11-29T10:19:19.716Z,93769.44
2022-11-29T10:21:57.220Z,93767.91
2022-11-29T10:24:26.483Z,93772.31
2022-11-29T10:26:53.456Z,93770.06
2022-11-29T10:29:20.238Z,93767.81
2022-11-29T10:31:49.573Z,93773.47
2022-11-29T10:34:22.485Z,93761.09
2022-11-29T10:36:59.486Z,93765.31
2022-11-29T10:39:49.623Z,93771.69
2022-11-29T10:42:36.477Z,93758.03
2022-11-29T10:45:05.495Z,93758.06
2022-11-29T10:47:32.306Z,93758.06
2022-11-29T10:49:59.353Z,93767.06
2022-11-29T10:52:25.995Z,93757.75
2022-11-29T10:54:57.113Z,93763.59
2022-11-29T10:57:23.973Z,93760.47
2022-11-29T10:59:59.806Z,93755.75
2022-11-29T11:02:27.695Z,93759.16
2022-11-29T11:04:54.524Z,93765.78
2022-11-29T11:07:36.901Z,93756.53
2022-11-29T11:10:26.676Z,93757.28
2022-11-29T11:13:18.766Z,93759.31
2022-11-29T11:15:45.530Z,93766.94
2022-11-29T11:18:21.397Z,93758.06
2022-11-29T11:20:57.995Z,93759.13
2022-11-29T11:23:28.924Z,93769.56
2022-11-29T11:26:02.551Z,93763.41
2022-11-29T11:28:53.383Z,93767.25
2022-11-29T11:31:35.740Z,93772.19
2022-11-29T11:34:35.961Z,93764.53
2022-11-29T11:37:14.800Z,93764.81
2022-11-29T11:39:42.657Z,93769.91
2022-11-29T11:42:34.460Z,93767.66
2022-11-29T11:45:05.226Z,93758.69
2022-11-29T11:47:35.752Z,93771.66
2022-11-29T11:50:02.504Z,93763.88
2022-11-29T11:52:39.826Z,93759.59
2022-11-29T11:55:34.194Z,93764.75
2022-11-29T11:58:12.993Z,93769.44
2022-11-29T12:01:06.864Z,93771.25
2022-11-29T12:03:53.236Z,93768.91
2022-11-29T12:06:32.295Z,93760.88
2022-11-29T12:09:08.413Z,93772.47
2022-11-29T12:11:44.491Z,93769.78
2022-11-29T12:14:20.855Z,93768.78
2022-11-29T12:16:50.193Z,93786.03
2022-11-29T12:19:30.348Z,93770.88
2022-11-29T12:22:04.350Z,93780.59
2022-11-29T12:24:35.519Z,93777.59
2022-11-29T12:27:05.223Z,93778.78
2022-11-29T12:29:34.439Z,93786.94
2022-11-29T12:32:56.572Z,93772.94
2022-11-29T12:35:26.159Z,93789.66
2022-11-29T12:38:27.060Z,93783.09
2022-11-29T12:41:13.631Z,93784.25
2022-11-29T12:43:52.385Z,93782.72
2022-11-29T12:46:27.819Z,93777.63
2022-11-29T12:49:12.553Z,93783.03
2022-11-29T12:52:03.824Z,93784.28
2022-11-29T12:55:00.487Z,93784.72
2022-11-29T12:57:38.663Z,93787.81
2022-11-29T13:00:36.760Z,93785.13
2022-11-29T13:03:26.244Z,93781.22
2022-11-29T13:06:08.724Z,93784.31
2022-11-29T13:08:35.313Z,93778.13
2022-11-29T13:11:20.688Z,93792.50
2022-11-29T13:14:13.748Z,93790.94
2022-11-29T13:16:59.029Z,93778.50
2022-11-29T13:19:43.967Z,93787.47
2022-11-29T13:22:25.350Z,93789.03
2022-11-29T13:24:57.516Z,93794.09
2022-11-29T13:27:29.966Z,93788.66
2022-11-29T13:29:59.599Z,93783.19
2022-11-29T13:32:37.157Z,93790.94
2022-11-29T13:35:16.127Z,93787.09
2022-11-29T13:37:54.956Z,93783.94
2022-11-29T13:40:25.894Z,93785.88
2022-11-29T13:43:19.186Z,93792.53
2022-11-29T13:46:05.325Z,93790.22
2022-11-29T13:48:46.867Z,93790.97
2022-11-29T13:51:28.253Z,93789.41
2022-11-29T13:53:56.524Z,93788.63
2022-11-29T13:56:47.848Z,93787.06
2022-11-29T13:59:27.664Z,93785.88
2022-11-29T14:01:54.767Z,93797.56
2022-11-29T14:04:27.565Z,93793.69
2022-11-29T14:07:13.449Z,93787.44
2022-11-29T14:09:45.474Z,93787.81
2022-11-29T14:12:26.027Z,93785.50
2022-11-29T14:15:00.775Z,93789.38
2022-11-29T14:17:36.546Z,93787.03
2022-11-29T14:20:30.828Z,93785.88
2022-11-29T14:23:06.776Z,93791.72
2022-11-29T14:25:54.980Z,93795.22
2022-11-29T14:28:21.622Z,93791.69
2022-11-29T14:30:57.169Z,93793.63
2022-11-29T14:33:48.437Z,93794.06
2022-11-29T14:36:15.094Z,93804.56
2022-11-29T14:38:51.055Z,93803.00
2022-11-29T14:41:48.612Z,93803.78
2022-11-29T14:44:24.231Z,93809.59
2022-11-29T14:47:02.991Z,93804.13
2022-11-29T14:49:31.493Z,93806.13
2022-11-29T14:52:08.448Z,93808.84
2022-11-29T14:54:36.943Z,93816.19
2022-11-29T14:57:48.404Z,93811.53
2022-11-29T15:00:17.919Z,93811.13
2022-11-29T15:02:50.192Z,93808.78
2022-11-29T15:05:19.768Z,93818.50
2022-11-29T15:07:57.047Z,93816.97
2022-11-29T15:10:29.721Z,93819.69
2022-11-29T15:12:59.603Z,93823.59
2022-11-29T15:15:55.561Z,93822.00
2022-11-29T15:18:35.244Z,93828.97
2022-11-29T15:21:10.911Z,93830.06
2022-11-29T15:23:42.621Z,93825.03
2022-11-29T15:26:20.182Z,93826.56
2022-11-29T15:28:47.067Z,93832.41
2022-11-29T15:31:20.136Z,93828.53
2022-11-29T15:33:49.295Z,93835.16
2022-11-29T15:36:19.445Z,93832.47
2022-11-29T15:38:47.579Z,93834.34
2022-11-29T15:41:35.348Z,93838.25
2022-11-29T15:44:04.778Z,93840.91
2022-11-29T15:46:34.764Z,93846.34
2022-11-29T15:49:24.343Z,93847.50
2022-11-29T15:52:07.700Z,93850.56
2022-11-29T15:54:42.523Z,93854.41
2022-11-29T15:57:19.670Z,93850.53
2022-11-29T15:59:54.492Z,93843.63
2022-11-29T16:02:28.240Z,93846.78
2022-11-29T16:04:59.779Z,93846.78
2022-11-29T16:07:32.046Z,93856.16
2022-11-29T16:10:03.835Z,93861.16
2022-11-29T16:12:30.480Z,93857.59
2022-11-29T16:14:59.681Z,93859.84
2022-11-29T16:17:32.395Z,93857.09
2022-11-29T16:20:25.531Z,93854.78
2022-11-29T16:23:11.369Z,93854.47
2022-11-29T16:26:05.633Z,93856.41
2022-11-29T16:28:36.427Z,93861.69
2022-11-29T16:31:04.953Z,93870.78
2022-11-29T16:33:32.335Z,93863.47
2022-11-29T16:36:16.278Z,93872.75
2022-11-29T16:38:54.106Z,93874.72
2022-11-29T16:41:23.245Z,93880.22
2022-11-29T16:43:55.426Z,93870.53
2022-11-29T16:46:22.202Z,93876.78
2022-11-29T16:48:50.466Z,93882.56
2022-11-29T16:51:25.768Z,93879.06
2022-11-29T16:53:54.027Z,93876.59
2022-11-29T16:56:23.829Z,93877.34
2022-11-29T16:59:25.326Z,93874.31
2022-11-29T17:01:41.294Z,93880.19
2022-11-29T17:04:08.769Z,93878.56
2022-11-29T17:06:35.691Z,93891.31
2022-11-29T17:09:02.355Z,93882.03
2022-11-29T17:11:28.942Z,93883.97
2022-11-29T17:13:55.672Z,93889.81
2022-11-29T17:16:23.912Z,93885.13
2022-11-29T17:18:52.750Z,93886.72
2022-11-29T17:21:21.962Z,93892.19
2022-11-29T17:23:49.145Z,93886.31
2022-11-29T17:26:16.151Z,93889.44
2022-11-29T17:28:44.589Z,93890.56
2022-11-29T17:31:12.975Z,93899.88
2022-11-29T17:33:39.777Z,93899.91
2022-11-29T17:36:12.709Z,93906.13
2022-11-29T17:38:39.390Z,93904.22
2022-11-29T17:41:10.342Z,93903.41
2022-11-29T17:43:37.865Z,93910.28
2022-11-29T17:46:09.447Z,93910.19
2022-11-29T17:48:36.636Z,93922.25
2022-11-29T17:51:06.918Z,93916.44
2022-11-29T17:53:40.072Z,93915.34
2022-11-29T17:56:18.017Z,93911.84
2022-11-29T17:58:44.942Z,93913.44
2022-11-29T18:01:16.810Z,93921.22
2022-11-29T18:03:45.986Z,93924.22
2022-11-29T18:06:13.815Z,93926.97
2022-11-29T18:08:43.009Z,93919.63
2022-11-29T18:11:12.879Z,93925.81
2022-11-29T18:13:39.891Z,93928.88
2022-11-29T18:16:09.562Z,93933.56
2022-11-29T18:18:37.283Z,93936.25
2022-11-29T18:21:06.176Z,93928.84
2022-11-29T18:23:34.886Z,93928.78
2022-11-29T18:26:04.639Z,93936.03
2022-11-29T18:28:34.337Z,93939.97
2022-11-29T18:31:10.326Z,93934.69
2022-11-29T18:33:37.123Z,93929.75
2022-11-29T18:36:05.675Z,93935.38
2022-11-29T18:38:33.036Z,93944.25
2022-11-29T18:41:06.581Z,93941.31
2022-11-29T18:43:33.538Z,93943.03
2022-11-29T18:46:08.452Z,93944.09
2022-11-29T18:48:35.774Z,93948.66
2022-11-29T18:51:05.119Z,93944.75
2022-11-29T18:53:33.363Z,93942.88
2022-11-29T18:56:08.288Z,93949.56
2022-11-29T18:58:34.943Z,93953.50
2022-11-29T19:01:04.919Z,93949.56
2022-11-29T19:03:37.244Z,93947.28
2022-11-29T19:06:10.070Z,93946.56
2022-11-29T19:08:37.316Z,93947.34
2022-11-29T19:11:12.278Z,93946.13
2022-11-29T19:13:40.071Z,93952.19
2022-11-29T19:16:13.040Z,93945.06
2022-11-29T19:18:39.978Z,93949.81
2022-11-29T19:21:12.411Z,93949.44
2022-11-29T19:23:40.149Z,93946.00
2022-11-29T19:26:11.953Z,93951.75
2022-11-29T19:28:40.737Z,93947.97
2022-11-29T19:31:07.960Z,93954.59
2022-11-29T19:33:36.516Z,93951.16
2022-11-29T19:36:08.827Z,93952.28
2022-11-29T19:38:36.192Z,93959.59
2022-11-29T19:41:13.986Z,93954.97
2022-11-29T19:43:40.802Z,93952.69
2022-11-29T19:46:12.211Z,93958.75
2022-11-29T19:48:39.498Z,93956.16
2022-11-29T19:51:07.677Z,93956.59
2022-11-29T19:53:35.234Z,93961.56
2022-11-29T19:56:11.233Z,93962.34
2022-11-29T19:58:37.989Z,93959.16
2022-11-29T20:01:07.738Z,93958.31
2022-11-29T20:03:34.760Z,93968.16
2022-11-29T20:06:02.379Z,93957.19
2022-11-29T20:08:29.351Z,93961.84
2022-11-29T20:10:56.258Z,93960.31
2022-11-29T20:13:23.042Z,93964.63
2022-11-29T20:15:49.799Z,93965.81
2022-11-29T20:18:16.414Z,93971.19
2022-11-29T20:20:43.065Z,93966.56
2022-11-29T20:23:09.730Z,93965.75
2022-11-29T20:25:36.739Z,93964.97
2022-11-29T20:28:04.180Z,93969.59
2022-11-29T20:30:30.882Z,93968.09
2022-11-29T20:32:57.647Z,93964.59
2022-11-29T20:35:24.546Z,93964.56
2022-11-29T20:38:06.336Z,93975.06
2022-11-29T20:40:57.070Z,93970.78
2022-11-29T20:43:53.280Z,93976.19
2022-11-29T20:46:20.341Z,93984.72
2022-11-29T20:48:47.304Z,93985.06
2022-11-29T20:51:15.355Z,93982.25
2022-11-29T20:53:43.783Z,93982.34
2022-11-29T20:56:11.500Z,93977.31
2022-11-29T20:58:38.798Z,93981.94
2022-11-29T21:01:07.341Z,93981.66
2022-11-29T21:03:34.352Z,93980.06
2022-11-29T21:06:02.906Z,93977.72
2022-11-29T21:08:29.618Z,93981.97
2022-11-29T21:11:02.689Z,93981.22
2022-11-29T21:13:29.791Z,93983.97
2022-11-29T21:15:56.886Z,93989.41
2022-11-29T21:18:25.990Z,93991.72
2022-11-29T21:21:03.000Z,93981.56
2022-11-29T21:23:38.137Z,93976.53
2022-11-29T21:26:16.504Z,93982.34
2022-11-29T21:29:12.186Z,93985.09
2022-11-29T21:31:39.166Z,93977.72
2022-11-29T21:34:05.872Z,93985.91
2022-11-29T21:36:32.535Z,93982.75
2022-11-29T21:39:03.621Z,93987.38
2022-11-29T21:41:31.743Z,93978.84
2022-11-29T21:44:06.741Z,93982.75
2022-11-29T21:46:34.658Z,93982.72
2022-11-29T21:49:01.431Z,93985.06
2022-11-29T21:51:28.080Z,93982.22
2022-11-29T21:53:54.709Z,93983.34
2022-11-29T21:56:21.461Z,93982.59
2022-11-29T21:58:48.153Z,93983.47
2022-11-29T22:01:17.931Z,93986.56
2022-11-29T22:03:45.057Z,93981.13
2022-11-29T22:06:15.129Z,93976.38
2022-11-29T22:08:42.209Z,93975.94
2022-11-29T22:11:11.887Z,93984.25
2022-11-29T22:14:00.275Z,93982.69
2022-11-29T22:16:27.243Z,93979.63
2022-11-29T22:18:54.203Z,93979.16
2022-11-29T22:21:21.098Z,93984.22
2022-11-29T22:23:47.744Z,93980.22
2022-11-29T22:26:14.546Z,93978.81
2022-11-29T22:28:41.194Z,93971.41
2022-11-29T22:31:10.513Z,93977.19
2022-11-29T22:33:38.254Z,93977.34
2022-11-29T22:36:10.765Z,93978.16
2022-11-29T22:38:38.465Z,93980.88
2022-11-29T22:41:10.304Z,93979.81
2022-11-29T22:43:38.169Z,93975.25
2022-11-29T22:46:04.814Z,93975.69
2022-11-29T22:48:36.962Z,93979.47
2022-11-29T22:51:14.009Z,93973.22
2022-11-29T22:53:42.827Z,93979.47
2022-11-29T22:56:11.369Z,93984.94
2022-11-29T22:58:38.378Z,93983.84
2022-11-29T23:01:24.815Z,93985.44
2022-11-29T23:03:54.501Z,93981.13
2022-11-29T23:06:26.647Z,93984.53
2022-11-29T23:08:55.782Z,93978.69
2022-11-29T23:11:25.584Z,93983.13
2022-11-29T23:13:52.479Z,93974.84
2022-11-29T23:16:22.169Z,93974.41
2022-11-29T23:18:49.339Z,93989.88
2022-11-29T23:21:27.858Z,93987.16
2022-11-29T23:23:56.572Z,93981.00
2022-11-29T23:26:25.209Z,93986.56
2022-11-29T23:28:52.820Z,93979.22
2022-11-29T23:31:19.687Z,93983.06
2022-11-29T23:33:46.368Z,93984.66
2022-11-29T23:36:13.697Z,93987.63
2022-11-29T23:38:40.463Z,93988.84
2022-11-29T23:41:08.303Z,93975.66
2022-11-29T23:43:36.819Z,93984.56
2022-11-29T23:46:32.919Z,93979.91
2022-11-29T23:48:59.550Z,93986.16
2022-11-29T23:51:26.179Z,93975.69
2022-11-29T23:53:55.176Z,93978.00
2022-11-29T23:56:22.503Z,93975.69
2022-11-29T23:58:49.746Z,93973.38
